Mataranka, Australia
Current Conditions -  °F | °C
As of 1:30 PM on Thursday 23 Oct 2014 (Local Time) from YPTN Reporting Station
Clear Clear  
Wind Chill: 99°   Ceiling: Unl
Heat Index: 99°   Visibility: 6mi
Dew Point: 39°   Wind: 5mph
Humidity: 13%   Direction: 30°NNE
Pressure: 29.83"   Gusts: NA
Location:  14.93°S, 133.07°E
Report Text: YPTN 230430Z AUTO 03004KT 9999 // NCD 37/04 Q1010
Loading
Personal Weather Stations






























Interactive Weather Map
Tropical Storm Tracking
New forecast layout! Learn more

10-Day Weather Forecast

Advertisements
Track Severe Weather on mobile